sensor_id;sensor_type;location;lat;lon;timestamp;temperature;humidity
6964;DHT22;3522;50.856;7.278;2024-02-26T00:00:05;6.80;99.90
6964;DHT22;3522;50.856;7.278;2024-02-26T00:02:35;6.80;99.90
6964;DHT22;3522;50.856;7.278;2024-02-26T00:05:04;6.80;99.90
6964;DHT22;3522;50.856;7.278;2024-02-26T00:07:31;6.80;99.90
6964;DHT22;3522;50.856;7.278;2024-02-26T00:09:57;6.70;99.90
6964;DHT22;3522;50.856;7.278;2024-02-26T00:12:24;6.70;99.90
6964;DHT22;3522;50.856;7.278;2024-02-26T00:14:50;6.70;99.90
6964;DHT22;3522;50.856;7.278;2024-02-26T00:17:18;6.70;99.90
6964;DHT22;3522;50.856;7.278;2024-02-26T00:19:46;6.60;99.90
6964;DHT22;3522;50.856;7.278;2024-02-26T00:22:12;6.60;99.90
6964;DHT22;3522;50.856;7.278;2024-02-26T00:24:39;6.60;99.90
6964;DHT22;3522;50.856;7.278;2024-02-26T00:27:06;6.60;99.90
6964;DHT22;3522;50.856;7.278;2024-02-26T00:29:32;6.60;99.90
6964;DHT22;3522;50.856;7.278;2024-02-26T00:31:59;6.60;99.90
6964;DHT22;3522;50.856;7.278;2024-02-26T00:34:26;6.60;99.90
6964;DHT22;3522;50.856;7.278;2024-02-26T00:36:53;6.50;99.90
6964;DHT22;3522;50.856;7.278;2024-02-26T00:39:20;6.50;99.90
6964;DHT22;3522;50.856;7.278;2024-02-26T00:41:46;6.50;99.90
6964;DHT22;3522;50.856;7.278;2024-02-26T00:44:13;6.40;99.90
6964;DHT22;3522;50.856;7.278;2024-02-26T00:46:40;6.40;99.90
6964;DHT22;3522;50.856;7.278;2024-02-26T00:49:06;6.40;99.90
6964;DHT22;3522;50.856;7.278;2024-02-26T00:51:33;6.40;99.90
6964;DHT22;3522;50.856;7.278;2024-02-26T00:54:01;6.40;99.90
6964;DHT22;3522;50.856;7.278;2024-02-26T00:56:28;6.40;99.90
6964;DHT22;3522;50.856;7.278;2024-02-26T00:58:54;6.40;99.90
6964;DHT22;3522;50.856;7.278;2024-02-26T01:01:21;6.40;99.90
6964;DHT22;3522;50.856;7.278;2024-02-26T01:03:48;6.30;99.90
6964;DHT22;3522;50.856;7.278;2024-02-26T01:06:14;6.30;99.90
6964;DHT22;3522;50.856;7.278;2024-02-26T01:08:41;6.30;99.90
6964;DHT22;3522;50.856;7.278;2024-02-26T01:11:08;6.30;99.90
6964;DHT22;3522;50.856;7.278;2024-02-26T01:13:35;6.30;99.90
6964;DHT22;3522;50.856;7.278;2024-02-26T01:16:02;6.30;99.90
6964;DHT22;3522;50.856;7.278;2024-02-26T01:18:28;6.20;99.90
6964;DHT22;3522;50.856;7.278;2024-02-26T01:20:55;6.20;99.90
6964;DHT22;3522;50.856;7.278;2024-02-26T01:23:21;6.20;99.90
6964;DHT22;3522;50.856;7.278;2024-02-26T01:25:48;6.20;99.90
6964;DHT22;3522;50.856;7.278;2024-02-26T01:28:16;6.20;99.90
6964;DHT22;3522;50.856;7.278;2024-02-26T01:30:42;6.20;99.90
6964;DHT22;3522;50.856;7.278;2024-02-26T01:33:09;6.20;99.90
6964;DHT22;3522;50.856;7.278;2024-02-26T01:35:35;6.20;99.90
6964;DHT22;3522;50.856;7.278;2024-02-26T01:38:02;6.10;99.90
6964;DHT22;3522;50.856;7.278;2024-02-26T01:40:29;6.10;99.90
6964;DHT22;3522;50.856;7.278;2024-02-26T01:42:55;6.10;99.90
6964;DHT22;3522;50.856;7.278;2024-02-26T01:45:23;6.10;99.90
6964;DHT22;3522;50.856;7.278;2024-02-26T01:47:50;6.10;99.90
6964;DHT22;3522;50.856;7.278;2024-02-26T01:50:17;6.10;99.90
6964;DHT22;3522;50.856;7.278;2024-02-26T01:52:44;6.00;99.90
6964;DHT22;3522;50.856;7.278;2024-02-26T01:55:10;6.00;99.90
6964;DHT22;3522;50.856;7.278;2024-02-26T01:57:39;6.00;99.90
6964;DHT22;3522;50.856;7.278;2024-02-26T02:00:06;6.00;99.90
6964;DHT22;3522;50.856;7.278;2024-02-26T02:02:34;6.00;99.90
6964;DHT22;3522;50.856;7.278;2024-02-26T02:05:01;6.10;99.90
6964;DHT22;3522;50.856;7.278;2024-02-26T02:07:29;6.10;99.90
6964;DHT22;3522;50.856;7.278;2024-02-26T02:09:56;6.10;99.90
6964;DHT22;3522;50.856;7.278;2024-02-26T02:12:23;6.10;99.90
6964;DHT22;3522;50.856;7.278;2024-02-26T02:14:49;6.10;99.90
6964;DHT22;3522;50.856;7.278;2024-02-26T02:17:16;6.10;99.90
6964;DHT22;3522;50.856;7.278;2024-02-26T02:19:44;6.10;99.90
6964;DHT22;3522;50.856;7.278;2024-02-26T02:22:12;6.00;99.90
6964;DHT22;3522;50.856;7.278;2024-02-26T02:24:38;6.00;99.90
6964;DHT22;3522;50.856;7.278;2024-02-26T02:27:05;6.10;99.90
6964;DHT22;3522;50.856;7.278;2024-02-26T02:29:31;6.00;99.90
6964;DHT22;3522;50.856;7.278;2024-02-26T02:31:58;6.00;99.90
6964;DHT22;3522;50.856;7.278;2024-02-26T02:34:25;6.00;99.90
6964;DHT22;3522;50.856;7.278;2024-02-26T02:36:52;6.00;99.90
6964;DHT22;3522;50.856;7.278;2024-02-26T02:39:20;6.00;99.90
6964;DHT22;3522;50.856;7.278;2024-02-26T02:41:47;6.00;99.90
6964;DHT22;3522;50.856;7.278;2024-02-26T02:44:13;6.00;99.90
6964;DHT22;3522;50.856;7.278;2024-02-26T02:46:40;6.00;99.90
6964;DHT22;3522;50.856;7.278;2024-02-26T02:49:08;6.00;99.90
6964;DHT22;3522;50.856;7.278;2024-02-26T02:51:34;6.00;99.90
6964;DHT22;3522;50.856;7.278;2024-02-26T02:54:01;6.00;99.90
6964;DHT22;3522;50.856;7.278;2024-02-26T02:56:29;6.00;99.90
6964;DHT22;3522;50.856;7.278;2024-02-26T02:58:55;6.00;99.90
6964;DHT22;3522;50.856;7.278;2024-02-26T03:01:22;6.00;99.90
6964;DHT22;3522;50.856;7.278;2024-02-26T03:03:48;6.00;99.90
6964;DHT22;3522;50.856;7.278;2024-02-26T03:06:16;6.00;99.90
6964;DHT22;3522;50.856;7.278;2024-02-26T03:08:43;6.00;99.90
6964;DHT22;3522;50.856;7.278;2024-02-26T03:11:12;6.00;99.90
6964;DHT22;3522;50.856;7.278;2024-02-26T03:13:40;5.90;99.90
6964;DHT22;3522;50.856;7.278;2024-02-26T03:16:07;5.90;99.90
6964;DHT22;3522;50.856;7.278;2024-02-26T03:18:33;5.90;99.90
6964;DHT22;3522;50.856;7.278;2024-02-26T03:21:00;5.90;99.90
6964;DHT22;3522;50.856;7.278;2024-02-26T03:23:27;5.90;99.90
6964;DHT22;3522;50.856;7.278;2024-02-26T03:25:55;5.90;99.90
6964;DHT22;3522;50.856;7.278;2024-02-26T03:28:21;5.90;99.90
6964;DHT22;3522;50.856;7.278;2024-02-26T03:30:49;5.90;99.90
6964;DHT22;3522;50.856;7.278;2024-02-26T03:33:16;5.90;99.90
6964;DHT22;3522;50.856;7.278;2024-02-26T03:35:42;5.90;99.90
6964;DHT22;3522;50.856;7.278;2024-02-26T03:38:09;5.90;99.90
6964;DHT22;3522;50.856;7.278;2024-02-26T03:40:35;5.90;99.90
6964;DHT22;3522;50.856;7.278;2024-02-26T03:43:02;5.90;99.90
6964;DHT22;3522;50.856;7.278;2024-02-26T03:45:30;5.90;99.90
6964;DHT22;3522;50.856;7.278;2024-02-26T03:47:58;5.90;99.90
6964;DHT22;3522;50.856;7.278;2024-02-26T03:50:24;5.90;99.90
6964;DHT22;3522;50.856;7.278;2024-02-26T03:52:51;5.90;99.90
6964;DHT22;3522;50.856;7.278;2024-02-26T03:55:17;5.90;99.90
6964;DHT22;3522;50.856;7.278;2024-02-26T03:57:50;5.90;99.90
6964;DHT22;3522;50.856;7.278;2024-02-26T04:00:16;5.90;99.90
6964;DHT22;3522;50.856;7.278;2024-02-26T04:02:43;5.90;99.90
6964;DHT22;3522;50.856;7.278;2024-02-26T04:05:11;5.80;99.90
6964;DHT22;3522;50.856;7.278;2024-02-26T04:07:38;5.80;99.90
6964;DHT22;3522;50.856;7.278;2024-02-26T04:10:08;5.80;99.90
6964;DHT22;3522;50.856;7.278;2024-02-26T04:12:34;5.80;99.90
6964;DHT22;3522;50.856;7.278;2024-02-26T04:15:01;5.80;99.90
6964;DHT22;3522;50.856;7.278;2024-02-26T04:17:27;5.80;99.90
6964;DHT22;3522;50.856;7.278;2024-02-26T04:19:54;5.80;99.90
6964;DHT22;3522;50.856;7.278;2024-02-26T04:22:22;5.80;99.90
6964;DHT22;3522;50.856;7.278;2024-02-26T04:24:49;5.80;99.90
6964;DHT22;3522;50.856;7.278;2024-02-26T04:27:15;5.70;99.90
6964;DHT22;3522;50.856;7.278;2024-02-26T04:29:42;5.80;99.90
6964;DHT22;3522;50.856;7.278;2024-02-26T04:32:09;5.70;99.90
6964;DHT22;3522;50.856;7.278;2024-02-26T04:34:35;5.70;99.90
6964;DHT22;3522;50.856;7.278;2024-02-26T04:37:02;5.70;99.90
6964;DHT22;3522;50.856;7.278;2024-02-26T04:39:30;5.70;99.90
6964;DHT22;3522;50.856;7.278;2024-02-26T04:41:57;5.70;99.90
6964;DHT22;3522;50.856;7.278;2024-02-26T04:44:23;5.70;99.90
6964;DHT22;3522;50.856;7.278;2024-02-26T04:46:50;5.60;99.90
6964;DHT22;3522;50.856;7.278;2024-02-26T04:49:16;5.70;99.90
6964;DHT22;3522;50.856;7.278;2024-02-26T04:51:43;5.70;99.90
6964;DHT22;3522;50.856;7.278;2024-02-26T04:54:09;5.60;99.90
6964;DHT22;3522;50.856;7.278;2024-02-26T04:56:37;5.60;99.90
6964;DHT22;3522;50.856;7.278;2024-02-26T04:59:04;5.60;99.90
6964;DHT22;3522;50.856;7.278;2024-02-26T05:01:30;5.70;99.90
6964;DHT22;3522;50.856;7.278;2024-02-26T05:03:57;5.60;99.90
6964;DHT22;3522;50.856;7.278;2024-02-26T05:06:23;5.60;99.90
6964;DHT22;3522;50.856;7.278;2024-02-26T05:08:50;5.60;99.90
6964;DHT22;3522;50.856;7.278;2024-02-26T05:11:17;5.60;99.90
6964;DHT22;3522;50.856;7.278;2024-02-26T05:13:45;5.60;99.90
6964;DHT22;3522;50.856;7.278;2024-02-26T05:16:12;5.60;99.90
6964;DHT22;3522;50.856;7.278;2024-02-26T05:18:39;5.50;99.90
6964;DHT22;3522;50.856;7.278;2024-02-26T05:21:05;5.50;99.90
6964;DHT22;3522;50.856;7.278;2024-02-26T05:23:32;5.50;99.90
6964;DHT22;3522;50.856;7.278;2024-02-26T05:25:58;5.50;99.90
6964;DHT22;3522;50.856;7.278;2024-02-26T05:28:25;5.50;99.90
6964;DHT22;3522;50.856;7.278;2024-02-26T05:30:53;5.50;99.90
6964;DHT22;3522;50.856;7.278;2024-02-26T05:33:19;5.50;99.90
6964;DHT22;3522;50.856;7.278;2024-02-26T05:35:46;5.50;99.90
6964;DHT22;3522;50.856;7.278;2024-02-26T05:38:12;5.50;99.90
6964;DHT22;3522;50.856;7.278;2024-02-26T05:40:39;5.50;99.90
6964;DHT22;3522;50.856;7.278;2024-02-26T05:43:05;5.50;99.90
6964;DHT22;3522;50.856;7.278;2024-02-26T05:45:32;5.50;99.90
6964;DHT22;3522;50.856;7.278;2024-02-26T05:48:00;5.50;99.90
6964;DHT22;3522;50.856;7.278;2024-02-26T05:50:28;5.40;99.90
6964;DHT22;3522;50.856;7.278;2024-02-26T05:52:54;5.50;99.90
6964;DHT22;3522;50.856;7.278;2024-02-26T05:55:21;5.50;99.90
6964;DHT22;3522;50.856;7.278;2024-02-26T05:57:48;5.50;99.90
6964;DHT22;3522;50.856;7.278;2024-02-26T06:00:15;5.50;99.90
6964;DHT22;3522;50.856;7.278;2024-02-26T06:02:41;5.50;99.90
6964;DHT22;3522;50.856;7.278;2024-02-26T06:05:09;5.50;99.90
6964;DHT22;3522;50.856;7.278;2024-02-26T06:07:36;5.50;99.90
6964;DHT22;3522;50.856;7.278;2024-02-26T06:10:03;5.50;99.90
6964;DHT22;3522;50.856;7.278;2024-02-26T06:12:30;5.50;99.90
6964;DHT22;3522;50.856;7.278;2024-02-26T06:14:56;5.50;99.90
6964;DHT22;3522;50.856;7.278;2024-02-26T06:17:23;5.50;99.90
6964;DHT22;3522;50.856;7.278;2024-02-26T06:19:50;5.50;99.90
6964;DHT22;3522;50.856;7.278;2024-02-26T06:22:18;5.50;99.90
6964;DHT22;3522;50.856;7.278;2024-02-26T06:24:45;5.50;99.90
6964;DHT22;3522;50.856;7.278;2024-02-26T06:27:11;5.50;99.90
6964;DHT22;3522;50.856;7.278;2024-02-26T06:29:38;5.50;99.90
6964;DHT22;3522;50.856;7.278;2024-02-26T06:32:05;5.50;99.90
6964;DHT22;3522;50.856;7.278;2024-02-26T06:34:31;5.50;99.90
6964;DHT22;3522;50.856;7.278;2024-02-26T06:36:58;5.50;99.90
6964;DHT22;3522;50.856;7.278;2024-02-26T06:39:26;5.50;99.90
6964;DHT22;3522;50.856;7.278;2024-02-26T06:41:52;5.50;99.90
6964;DHT22;3522;50.856;7.278;2024-02-26T06:44:25;5.50;99.90
6964;DHT22;3522;50.856;7.278;2024-02-26T06:46:57;5.50;99.90
6964;DHT22;3522;50.856;7.278;2024-02-26T06:49:23;5.50;99.90
6964;DHT22;3522;50.856;7.278;2024-02-26T06:51:50;5.50;99.90
6964;DHT22;3522;50.856;7.278;2024-02-26T06:54:16;5.50;99.90
6964;DHT22;3522;50.856;7.278;2024-02-26T06:56:44;5.50;99.90
6964;DHT22;3522;50.856;7.278;2024-02-26T06:59:11;5.50;99.90
6964;DHT22;3522;50.856;7.278;2024-02-26T07:01:39;5.50;99.90
6964;DHT22;3522;50.856;7.278;2024-02-26T07:04:06;5.50;99.90
6964;DHT22;3522;50.856;7.278;2024-02-26T07:06:32;5.50;99.90
6964;DHT22;3522;50.856;7.278;2024-02-26T07:08:59;5.50;99.90
6964;DHT22;3522;50.856;7.278;2024-02-26T07:11:25;5.50;99.90
6964;DHT22;3522;50.856;7.278;2024-02-26T07:13:53;5.50;99.90
6964;DHT22;3522;50.856;7.278;2024-02-26T07:16:20;5.50;99.90
6964;DHT22;3522;50.856;7.278;2024-02-26T07:18:46;5.50;99.90
6964;DHT22;3522;50.856;7.278;2024-02-26T07:21:13;5.50;99.90
6964;DHT22;3522;50.856;7.278;2024-02-26T07:23:39;5.50;99.90
6964;DHT22;3522;50.856;7.278;2024-02-26T07:26:06;5.50;99.90
6964;DHT22;3522;50.856;7.278;2024-02-26T07:28:33;5.50;99.90
6964;DHT22;3522;50.856;7.278;2024-02-26T07:31:01;5.50;99.90
6964;DHT22;3522;50.856;7.278;2024-02-26T07:33:28;5.50;99.90
6964;DHT22;3522;50.856;7.278;2024-02-26T07:35:55;5.50;99.90
6964;DHT22;3522;50.856;7.278;2024-02-26T07:38:21;5.50;99.90
6964;DHT22;3522;50.856;7.278;2024-02-26T07:40:49;5.50;99.90
6964;DHT22;3522;50.856;7.278;2024-02-26T07:43:15;5.50;99.90
6964;DHT22;3522;50.856;7.278;2024-02-26T07:45:42;5.50;99.90
6964;DHT22;3522;50.856;7.278;2024-02-26T07:48:10;5.40;99.90
6964;DHT22;3522;50.856;7.278;2024-02-26T07:50:37;5.40;99.90
6964;DHT22;3522;50.856;7.278;2024-02-26T07:53:05;5.40;99.90
6964;DHT22;3522;50.856;7.278;2024-02-26T07:55:32;5.40;99.90
6964;DHT22;3522;50.856;7.278;2024-02-26T07:57:58;5.40;99.90
6964;DHT22;3522;50.856;7.278;2024-02-26T08:00:25;5.40;99.90
6964;DHT22;3522;50.856;7.278;2024-02-26T08:02:52;5.40;99.90
6964;DHT22;3522;50.856;7.278;2024-02-26T08:05:20;5.40;99.90
6964;DHT22;3522;50.856;7.278;2024-02-26T08:07:46;5.40;99.90
6964;DHT22;3522;50.856;7.278;2024-02-26T08:10:13;5.40;99.90
6964;DHT22;3522;50.856;7.278;2024-02-26T08:12:40;5.40;99.90
6964;DHT22;3522;50.856;7.278;2024-02-26T08:15:07;5.50;99.90
6964;DHT22;3522;50.856;7.278;2024-02-26T08:17:34;5.40;99.90
6964;DHT22;3522;50.856;7.278;2024-02-26T08:20:01;5.40;99.90
6964;DHT22;3522;50.856;7.278;2024-02-26T08:22:29;5.50;99.90
6964;DHT22;3522;50.856;7.278;2024-02-26T08:24:56;5.50;99.90
6964;DHT22;3522;50.856;7.278;2024-02-26T08:27:22;5.50;99.90
6964;DHT22;3522;50.856;7.278;2024-02-26T08:29:49;5.50;99.90
6964;DHT22;3522;50.856;7.278;2024-02-26T08:32:15;5.50;99.90
6964;DHT22;3522;50.856;7.278;2024-02-26T08:34:42;5.50;99.90
6964;DHT22;3522;50.856;7.278;2024-02-26T08:37:08;5.50;99.90
6964;DHT22;3522;50.856;7.278;2024-02-26T08:39:36;5.50;99.90
6964;DHT22;3522;50.856;7.278;2024-02-26T08:42:05;5.60;99.90
6964;DHT22;3522;50.856;7.278;2024-02-26T08:44:31;5.50;99.90
6964;DHT22;3522;50.856;7.278;2024-02-26T08:46:58;5.50;99.90
6964;DHT22;3522;50.856;7.278;2024-02-26T08:49:24;5.50;99.90
6964;DHT22;3522;50.856;7.278;2024-02-26T08:51:51;5.50;99.90
6964;DHT22;3522;50.856;7.278;2024-02-26T08:54:17;5.50;99.90
6964;DHT22;3522;50.856;7.278;2024-02-26T08:56:45;5.60;99.90
6964;DHT22;3522;50.856;7.278;2024-02-26T08:59:12;5.50;99.90
6964;DHT22;3522;50.856;7.278;2024-02-26T09:01:41;5.50;99.90
6964;DHT22;3522;50.856;7.278;2024-02-26T09:04:08;5.50;99.90
6964;DHT22;3522;50.856;7.278;2024-02-26T09:06:34;5.50;99.90
6964;DHT22;3522;50.856;7.278;2024-02-26T09:09:01;5.50;99.90
6964;DHT22;3522;50.856;7.278;2024-02-26T09:11:29;5.50;99.90
6964;DHT22;3522;50.856;7.278;2024-02-26T09:13:57;5.50;99.90
6964;DHT22;3522;50.856;7.278;2024-02-26T09:16:24;5.50;99.90
6964;DHT22;3522;50.856;7.278;2024-02-26T09:18:50;5.50;99.90
6964;DHT22;3522;50.856;7.278;2024-02-26T09:21:17;5.50;99.90
6964;DHT22;3522;50.856;7.278;2024-02-26T09:23:48;5.50;99.90
6964;DHT22;3522;50.856;7.278;2024-02-26T09:26:14;5.50;99.90
6964;DHT22;3522;50.856;7.278;2024-02-26T09:28:41;5.50;99.90
6964;DHT22;3522;50.856;7.278;2024-02-26T09:31:09;5.50;99.90
6964;DHT22;3522;50.856;7.278;2024-02-26T09:33:36;5.50;99.90
6964;DHT22;3522;50.856;7.278;2024-02-26T09:36:03;5.50;99.90
6964;DHT22;3522;50.856;7.278;2024-02-26T09:38:31;5.50;99.90
6964;DHT22;3522;50.856;7.278;2024-02-26T09:41:02;5.50;99.90
6964;DHT22;3522;50.856;7.278;2024-02-26T09:43:31;5.50;99.90
6964;DHT22;3522;50.856;7.278;2024-02-26T09:46:00;5.50;99.90
6964;DHT22;3522;50.856;7.278;2024-02-26T09:48:28;5.50;99.90
6964;DHT22;3522;50.856;7.278;2024-02-26T09:50:55;5.50;99.90
6964;DHT22;3522;50.856;7.278;2024-02-26T09:53:22;5.50;99.90
6964;DHT22;3522;50.856;7.278;2024-02-26T09:55:49;5.50;99.90
6964;DHT22;3522;50.856;7.278;2024-02-26T09:58:15;5.50;99.90
6964;DHT22;3522;50.856;7.278;2024-02-26T10:00:45;5.60;99.90
6964;DHT22;3522;50.856;7.278;2024-02-26T10:03:13;5.60;99.90
6964;DHT22;3522;50.856;7.278;2024-02-26T10:05:42;5.60;99.90
6964;DHT22;3522;50.856;7.278;2024-02-26T10:08:09;5.70;99.90
6964;DHT22;3522;50.856;7.278;2024-02-26T10:10:37;5.70;99.90
6964;DHT22;3522;50.856;7.278;2024-02-26T10:13:04;5.70;99.90
6964;DHT22;3522;50.856;7.278;2024-02-26T10:15:35;5.70;99.90
6964;DHT22;3522;50.856;7.278;2024-02-26T10:18:03;5.80;99.90
6964;DHT22;3522;50.856;7.278;2024-02-26T10:20:30;5.80;99.90
6964;DHT22;3522;50.856;7.278;2024-02-26T10:22:58;5.80;99.90
6964;DHT22;3522;50.856;7.278;2024-02-26T10:34:30;5.90;99.90
6964;DHT22;3522;50.856;7.278;2024-02-26T10:36:57;6.00;99.90
6964;DHT22;3522;50.856;7.278;2024-02-26T10:39:25;6.10;99.90
6964;DHT22;3522;50.856;7.278;2024-02-26T10:41:52;6.10;99.90
6964;DHT22;3522;50.856;7.278;2024-02-26T10:44:18;6.20;99.90
6964;DHT22;3522;50.856;7.278;2024-02-26T10:46:46;6.20;99.90
6964;DHT22;3522;50.856;7.278;2024-02-26T10:49:13;6.30;99.90
6964;DHT22;3522;50.856;7.278;2024-02-26T10:51:43;6.30;99.90
6964;DHT22;3522;50.856;7.278;2024-02-26T10:54:10;6.40;99.90
6964;DHT22;3522;50.856;7.278;2024-02-26T10:56:40;6.50;99.90
6964;DHT22;3522;50.856;7.278;2024-02-26T10:59:09;6.50;99.90
6964;DHT22;3522;50.856;7.278;2024-02-26T11:01:36;6.60;99.90
6964;DHT22;3522;50.856;7.278;2024-02-26T11:04:04;6.70;99.90
6964;DHT22;3522;50.856;7.278;2024-02-26T11:06:31;6.80;99.90
6964;DHT22;3522;50.856;7.278;2024-02-26T11:09:00;6.80;99.90
6964;DHT22;3522;50.856;7.278;2024-02-26T11:11:27;6.90;99.90
6964;DHT22;3522;50.856;7.278;2024-02-26T11:13:55;7.10;99.90
6964;DHT22;3522;50.856;7.278;2024-02-26T11:16:22;6.90;99.90
6964;DHT22;3522;50.856;7.278;2024-02-26T11:18:49;6.90;99.90
6964;DHT22;3522;50.856;7.278;2024-02-26T11:21:16;6.90;99.90
6964;DHT22;3522;50.856;7.278;2024-02-26T11:23:44;6.80;99.90
6964;DHT22;3522;50.856;7.278;2024-02-26T11:26:11;6.70;99.90
6964;DHT22;3522;50.856;7.278;2024-02-26T11:28:39;6.70;99.90
6964;DHT22;3522;50.856;7.278;2024-02-26T11:31:07;6.70;99.90
6964;DHT22;3522;50.856;7.278;2024-02-26T11:33:34;6.60;99.90
6964;DHT22;3522;50.856;7.278;2024-02-26T11:36:01;6.60;99.90
6964;DHT22;3522;50.856;7.278;2024-02-26T11:38:28;6.60;99.90
6964;DHT22;3522;50.856;7.278;2024-02-26T11:40:55;6.60;99.90
6964;DHT22;3522;50.856;7.278;2024-02-26T11:43:23;6.60;99.90
6964;DHT22;3522;50.856;7.278;2024-02-26T11:48:28;6.70;99.90
6964;DHT22;3522;50.856;7.278;2024-02-26T11:50:55;6.70;99.90
6964;DHT22;3522;50.856;7.278;2024-02-26T11:53:24;6.70;99.90
6964;DHT22;3522;50.856;7.278;2024-02-26T11:58:38;6.90;99.90
6964;DHT22;3522;50.856;7.278;2024-02-26T12:01:05;7.00;99.90
6964;DHT22;3522;50.856;7.278;2024-02-26T12:03:33;7.00;99.90
6964;DHT22;3522;50.856;7.278;2024-02-26T12:05:59;7.00;99.90
6964;DHT22;3522;50.856;7.278;2024-02-26T12:08:26;7.10;99.90
6964;DHT22;3522;50.856;7.278;2024-02-26T12:10:53;7.10;99.90
6964;DHT22;3522;50.856;7.278;2024-02-26T12:13:21;7.10;99.90
6964;DHT22;3522;50.856;7.278;2024-02-26T12:15:56;7.20;99.90
6964;DHT22;3522;50.856;7.278;2024-02-26T12:18:23;7.20;99.90
6964;DHT22;3522;50.856;7.278;2024-02-26T12:20:58;7.20;99.90
6964;DHT22;3522;50.856;7.278;2024-02-26T12:23:26;7.20;99.90
6964;DHT22;3522;50.856;7.278;2024-02-26T12:25:53;7.20;99.90
6964;DHT22;3522;50.856;7.278;2024-02-26T12:28:20;7.20;99.90
6964;DHT22;3522;50.856;7.278;2024-02-26T12:30:47;7.30;99.90
6964;DHT22;3522;50.856;7.278;2024-02-26T12:33:14;7.40;99.90
6964;DHT22;3522;50.856;7.278;2024-02-26T12:35:41;7.30;99.90
6964;DHT22;3522;50.856;7.278;2024-02-26T12:38:10;7.30;99.90
6964;DHT22;3522;50.856;7.278;2024-02-26T12:40:39;7.30;99.90
6964;DHT22;3522;50.856;7.278;2024-02-26T12:43:05;7.30;99.90
6964;DHT22;3522;50.856;7.278;2024-02-26T12:45:35;7.20;99.90
6964;DHT22;3522;50.856;7.278;2024-02-26T12:48:01;7.30;99.90
6964;DHT22;3522;50.856;7.278;2024-02-26T12:50:28;7.30;99.90
6964;DHT22;3522;50.856;7.278;2024-02-26T12:52:54;7.30;99.90
6964;DHT22;3522;50.856;7.278;2024-02-26T12:55:22;7.30;99.90
6964;DHT22;3522;50.856;7.278;2024-02-26T12:57:49;7.30;99.90
6964;DHT22;3522;50.856;7.278;2024-02-26T13:00:18;7.30;99.90
6964;DHT22;3522;50.856;7.278;2024-02-26T13:02:45;7.40;99.90
6964;DHT22;3522;50.856;7.278;2024-02-26T13:05:12;7.40;99.90
6964;DHT22;3522;50.856;7.278;2024-02-26T13:07:42;7.40;99.90
6964;DHT22;3522;50.856;7.278;2024-02-26T13:10:09;7.40;99.90
6964;DHT22;3522;50.856;7.278;2024-02-26T13:12:42;7.50;99.90
6964;DHT22;3522;50.856;7.278;2024-02-26T13:15:13;7.50;99.90
6964;DHT22;3522;50.856;7.278;2024-02-26T13:17:40;7.60;99.90
6964;DHT22;3522;50.856;7.278;2024-02-26T13:20:07;7.60;99.90
6964;DHT22;3522;50.856;7.278;2024-02-26T13:22:35;7.70;99.90
6964;DHT22;3522;50.856;7.278;2024-02-26T13:25:01;7.70;99.90
6964;DHT22;3522;50.856;7.278;2024-02-26T13:27:29;7.70;99.90
6964;DHT22;3522;50.856;7.278;2024-02-26T13:30:03;7.70;99.90
6964;DHT22;3522;50.856;7.278;2024-02-26T13:35:08;7.70;99.90
6964;DHT22;3522;50.856;7.278;2024-02-26T13:37:34;7.70;99.90
6964;DHT22;3522;50.856;7.278;2024-02-26T13:40:04;7.70;99.90
6964;DHT22;3522;50.856;7.278;2024-02-26T13:42:30;7.60;99.90
6964;DHT22;3522;50.856;7.278;2024-02-26T13:44:58;7.60;99.90
6964;DHT22;3522;50.856;7.278;2024-02-26T13:47:25;7.50;99.90
6964;DHT22;3522;50.856;7.278;2024-02-26T13:49:52;7.50;99.90
6964;DHT22;3522;50.856;7.278;2024-02-26T13:52:19;7.40;99.90
6964;DHT22;3522;50.856;7.278;2024-02-26T13:54:46;7.40;99.90
6964;DHT22;3522;50.856;7.278;2024-02-26T13:57:12;7.40;99.90
6964;DHT22;3522;50.856;7.278;2024-02-26T13:59:39;7.40;99.90
6964;DHT22;3522;50.856;7.278;2024-02-26T14:02:07;7.40;99.90
6964;DHT22;3522;50.856;7.278;2024-02-26T14:04:35;7.40;99.90
6964;DHT22;3522;50.856;7.278;2024-02-26T14:07:02;7.50;99.90
6964;DHT22;3522;50.856;7.278;2024-02-26T14:09:32;7.50;99.90
6964;DHT22;3522;50.856;7.278;2024-02-26T14:11:58;7.60;99.90
6964;DHT22;3522;50.856;7.278;2024-02-26T14:14:26;7.60;99.90
6964;DHT22;3522;50.856;7.278;2024-02-26T14:16:53;7.50;99.90
6964;DHT22;3522;50.856;7.278;2024-02-26T14:19:19;7.60;99.90
6964;DHT22;3522;50.856;7.278;2024-02-26T14:21:48;7.60;99.90
6964;DHT22;3522;50.856;7.278;2024-02-26T14:24:14;7.60;99.90
6964;DHT22;3522;50.856;7.278;2024-02-26T14:26:42;7.60;99.90
6964;DHT22;3522;50.856;7.278;2024-02-26T14:29:09;7.60;99.90
6964;DHT22;3522;50.856;7.278;2024-02-26T14:31:35;7.70;99.90
6964;DHT22;3522;50.856;7.278;2024-02-26T14:34:02;7.80;99.90
6964;DHT22;3522;50.856;7.278;2024-02-26T14:36:29;7.70;99.90
6964;DHT22;3522;50.856;7.278;2024-02-26T14:38:57;7.70;99.90
6964;DHT22;3522;50.856;7.278;2024-02-26T14:41:23;7.70;99.90
6964;DHT22;3522;50.856;7.278;2024-02-26T14:43:50;7.60;99.90
6964;DHT22;3522;50.856;7.278;2024-02-26T14:46:16;7.60;99.90
6964;DHT22;3522;50.856;7.278;2024-02-26T14:48:43;7.60;99.90
6964;DHT22;3522;50.856;7.278;2024-02-26T14:51:10;7.60;99.90
6964;DHT22;3522;50.856;7.278;2024-02-26T14:53:36;7.60;99.90
6964;DHT22;3522;50.856;7.278;2024-02-26T14:56:05;7.60;99.90
6964;DHT22;3522;50.856;7.278;2024-02-26T14:58:31;7.50;99.90
6964;DHT22;3522;50.856;7.278;2024-02-26T15:00:58;7.50;99.90
6964;DHT22;3522;50.856;7.278;2024-02-26T15:03:24;7.40;99.90
6964;DHT22;3522;50.856;7.278;2024-02-26T15:05:51;7.40;99.90
6964;DHT22;3522;50.856;7.278;2024-02-26T15:08:18;7.50;99.90
6964;DHT22;3522;50.856;7.278;2024-02-26T15:10:44;7.50;99.90
6964;DHT22;3522;50.856;7.278;2024-02-26T15:13:15;7.50;99.90
6964;DHT22;3522;50.856;7.278;2024-02-26T15:15:43;7.50;99.90
6964;DHT22;3522;50.856;7.278;2024-02-26T15:18:10;7.50;99.90
6964;DHT22;3522;50.856;7.278;2024-02-26T15:20:40;7.50;99.90
6964;DHT22;3522;50.856;7.278;2024-02-26T15:23:07;7.50;99.90
6964;DHT22;3522;50.856;7.278;2024-02-26T15:25:34;7.60;99.90
6964;DHT22;3522;50.856;7.278;2024-02-26T15:28:01;7.60;99.90
6964;DHT22;3522;50.856;7.278;2024-02-26T15:30:29;7.60;99.90
6964;DHT22;3522;50.856;7.278;2024-02-26T15:32:58;7.60;99.90
6964;DHT22;3522;50.856;7.278;2024-02-26T15:38:00;7.60;99.90
6964;DHT22;3522;50.856;7.278;2024-02-26T15:40:29;7.60;99.90
6964;DHT22;3522;50.856;7.278;2024-02-26T15:42:56;7.70;99.90
6964;DHT22;3522;50.856;7.278;2024-02-26T15:45:22;7.70;99.90
6964;DHT22;3522;50.856;7.278;2024-02-26T15:47:51;7.80;99.90
6964;DHT22;3522;50.856;7.278;2024-02-26T15:50:18;7.80;99.90
6964;DHT22;3522;50.856;7.278;2024-02-26T15:52:44;7.80;99.90
6964;DHT22;3522;50.856;7.278;2024-02-26T15:55:11;7.80;99.90
6964;DHT22;3522;50.856;7.278;2024-02-26T15:57:38;7.80;99.90
6964;DHT22;3522;50.856;7.278;2024-02-26T16:00:05;7.80;99.90
6964;DHT22;3522;50.856;7.278;2024-02-26T16:02:35;7.80;99.90
6964;DHT22;3522;50.856;7.278;2024-02-26T16:05:04;7.80;99.90
6964;DHT22;3522;50.856;7.278;2024-02-26T16:07:35;7.70;99.90
6964;DHT22;3522;50.856;7.278;2024-02-26T16:10:03;7.70;99.90
6964;DHT22;3522;50.856;7.278;2024-02-26T16:12:37;7.70;99.90
6964;DHT22;3522;50.856;7.278;2024-02-26T16:15:05;7.70;99.90
6964;DHT22;3522;50.856;7.278;2024-02-26T16:17:32;7.60;99.90
6964;DHT22;3522;50.856;7.278;2024-02-26T16:20:00;7.60;99.90
6964;DHT22;3522;50.856;7.278;2024-02-26T16:22:30;7.60;99.90
6964;DHT22;3522;50.856;7.278;2024-02-26T16:24:58;7.60;99.90
6964;DHT22;3522;50.856;7.278;2024-02-26T16:27:24;7.50;99.90
6964;DHT22;3522;50.856;7.278;2024-02-26T16:29:51;7.50;99.90
6964;DHT22;3522;50.856;7.278;2024-02-26T16:32:18;7.50;99.90
6964;DHT22;3522;50.856;7.278;2024-02-26T16:34:45;7.50;99.90